createdAt,value
2019-02-23T00:02:00.904Z,76.74
2019-02-23T00:04:29.571Z,76.64
2019-02-23T00:06:58.240Z,76.62
2019-02-23T00:09:26.925Z,76.54
2019-02-23T00:11:55.913Z,75.39
2019-02-23T00:14:24.603Z,75.66
2019-02-23T00:16:53.287Z,76.09
2019-02-23T00:19:25.315Z,75.50
2019-02-23T00:21:53.173Z,76.11
2019-02-23T00:24:21.788Z,76.39
2019-02-23T00:26:50.741Z,76.28
2019-02-23T00:29:19.649Z,76.03
2019-02-23T00:31:48.577Z,76.13
2019-02-23T00:34:17.474Z,75.87
2019-02-23T00:36:46.401Z,75.90
2019-02-23T00:39:15.183Z,75.61
2019-02-23T00:41:43.869Z,75.65
2019-02-23T00:44:12.829Z,75.44
2019-02-23T00:46:41.504Z,75.71
2019-02-23T00:49:10.422Z,75.03
2019-02-23T00:51:39.344Z,74.96
2019-02-23T00:54:08.006Z,74.96
2019-02-23T00:56:36.695Z,75.05
2019-02-23T00:59:05.652Z,74.61
2019-02-23T01:01:34.645Z,74.45
2019-02-23T01:04:03.634Z,74.69
2019-02-23T01:06:32.944Z,74.64
2019-02-23T01:09:01.930Z,74.11
2019-02-23T01:11:30.638Z,74.25
2019-02-23T01:13:59.590Z,74.07
2019-02-23T01:16:28.278Z,74.28
2019-02-23T01:18:57.673Z,73.90
2019-02-23T01:21:26.804Z,72.87
2019-02-23T01:23:55.490Z,73.08
2019-02-23T01:26:24.195Z,72.33
2019-02-23T01:28:53.181Z,72.23
2019-02-23T01:31:21.903Z,72.10
2019-02-23T01:33:50.937Z,72.44
2019-02-23T01:36:20.038Z,72.23
2019-02-23T01:38:51.280Z,72.54
2019-02-23T01:41:20.269Z,72.44
2019-02-23T01:43:49.020Z,72.88
2019-02-23T01:46:17.695Z,72.69
2019-02-23T01:48:48.051Z,72.35
2019-02-23T01:51:16.747Z,71.65
2019-02-23T01:54:05.791Z,71.40
2019-02-23T01:56:37.906Z,70.93
2019-02-23T01:59:06.880Z,71.10
2019-02-23T02:01:35.558Z,70.83
2019-02-23T02:04:14.598Z,70.50
2019-02-23T02:06:43.294Z,70.72
2019-02-23T02:09:12.110Z,70.82
2019-02-23T02:11:41.088Z,71.03
2019-02-23T02:14:10.424Z,70.79
2019-02-23T02:16:39.602Z,71.02
2019-02-23T02:19:08.589Z,71.47
2019-02-23T02:21:37.276Z,71.91
2019-02-23T02:24:06.230Z,71.36
2019-02-23T02:26:35.311Z,70.61
2019-02-23T02:29:04.010Z,70.69
2019-02-23T02:31:32.952Z,69.99
2019-02-23T02:34:11.971Z,70.46
2019-02-23T02:36:41.232Z,70.82
2019-02-23T02:39:11.780Z,71.00
2019-02-23T02:41:40.700Z,71.42
2019-02-23T02:44:09.445Z,71.73
2019-02-23T02:49:25.927Z,70.41
2019-02-23T02:51:54.892Z,70.72
2019-02-23T02:54:23.634Z,70.28
2019-02-23T02:56:52.358Z,70.18
2019-02-23T02:59:21.241Z,69.75
2019-02-23T03:01:50.513Z,69.69
2019-02-23T03:04:19.806Z,70.26
2019-02-23T03:06:48.455Z,69.86
2019-02-23T03:09:17.120Z,69.60
2019-02-23T03:11:45.772Z,69.20
2019-02-23T03:14:14.820Z,70.04
2019-02-23T03:16:43.470Z,69.97
2019-02-23T03:19:12.443Z,69.78
2019-02-23T03:21:41.412Z,70.11
2019-02-23T03:24:10.390Z,70.27
2019-02-23T03:26:39.302Z,69.32
2019-02-23T03:29:07.991Z,69.22
2019-02-23T03:31:37.294Z,69.30
2019-02-23T03:34:05.972Z,70.16
2019-02-23T03:36:34.684Z,69.60
2019-02-23T03:39:04.889Z,69.99
2019-02-23T03:41:33.876Z,69.26
2019-02-23T03:44:02.623Z,68.43
2019-02-23T03:46:31.297Z,68.93
2019-02-23T03:48:59.971Z,68.53
2019-02-23T03:51:29.426Z,68.12
2019-02-23T03:53:58.097Z,67.91
2019-02-23T03:56:26.775Z,68.03
2019-02-23T03:58:55.741Z,67.06
2019-02-23T04:01:24.421Z,67.39
2019-02-23T04:03:53.372Z,67.33
2019-02-23T04:06:22.676Z,66.83
2019-02-23T04:08:51.663Z,67.89
2019-02-23T04:11:20.650Z,67.85
2019-02-23T04:13:49.305Z,68.35
2019-02-23T04:16:18.342Z,68.23
2019-02-23T04:18:47.327Z,68.13
2019-02-23T04:21:16.525Z,68.52
2019-02-23T04:23:45.181Z,67.81
2019-02-23T04:26:13.872Z,68.16
2019-02-23T04:28:42.545Z,68.28
2019-02-23T04:31:11.334Z,67.91
2019-02-23T04:33:40.169Z,68.03
2019-02-23T04:36:09.464Z,67.24
2019-02-23T04:38:38.657Z,67.31
2019-02-23T04:41:07.575Z,67.72
2019-02-23T04:43:36.589Z,67.82
2019-02-23T04:46:05.537Z,67.53
2019-02-23T04:48:34.834Z,67.62
2019-02-23T04:51:13.899Z,67.40
2019-02-23T04:53:34.353Z,68.23
2019-02-23T04:56:03.428Z,68.16
2019-02-23T04:58:33.475Z,68.33
2019-02-23T05:01:02.130Z,67.92
2019-02-23T05:03:31.237Z,67.77
2019-02-23T05:05:59.924Z,68.36
2019-02-23T05:08:28.604Z,67.90
2019-02-23T05:10:57.275Z,67.84
2019-02-23T05:13:25.961Z,67.90
2019-02-23T05:15:54.634Z,67.94
2019-02-23T05:18:23.281Z,68.27
2019-02-23T05:20:52.263Z,68.86
2019-02-23T05:23:21.256Z,67.96
2019-02-23T05:25:50.554Z,67.76
2019-02-23T05:28:19.542Z,68.06
2019-02-23T05:30:48.221Z,68.24
2019-02-23T05:33:17.431Z,68.65
2019-02-23T05:35:46.356Z,68.77
2019-02-23T05:38:15.530Z,68.66
2019-02-23T05:40:44.209Z,69.16
2019-02-23T05:43:13.395Z,68.40
2019-02-23T05:45:42.099Z,68.42
2019-02-23T05:48:10.763Z,68.99
2019-02-23T05:50:39.437Z,68.80
2019-02-23T05:53:08.089Z,69.20
2019-02-23T05:55:36.752Z,69.09
2019-02-23T05:58:05.423Z,69.19
2019-02-23T06:00:34.710Z,68.88
2019-02-23T06:03:03.394Z,68.96
2019-02-23T06:05:32.061Z,68.77
2019-02-23T06:08:00.727Z,68.45
2019-02-23T06:10:30.673Z,68.74
2019-02-23T06:13:00.297Z,68.60
2019-02-23T06:15:28.965Z,68.13
2019-02-23T06:17:57.966Z,67.41
2019-02-23T06:20:26.617Z,68.38
2019-02-23T06:22:55.296Z,67.76
2019-02-23T06:25:24.232Z,68.38
2019-02-23T06:27:53.221Z,68.95
2019-02-23T06:30:22.397Z,68.66
2019-02-23T06:32:51.411Z,67.98
2019-02-23T06:35:20.058Z,68.43
2019-02-23T06:37:48.760Z,68.54
2019-02-23T06:40:17.488Z,68.56
2019-02-23T06:42:46.789Z,68.91
2019-02-23T06:45:15.454Z,69.27
2019-02-23T06:47:46.490Z,69.39
2019-02-23T06:50:15.143Z,69.16
2019-02-23T06:52:43.809Z,68.99
2019-02-23T06:55:12.728Z,68.84
2019-02-23T06:57:41.751Z,68.35
2019-02-23T07:00:12.798Z,68.19
2019-02-23T07:02:41.772Z,68.48
2019-02-23T07:05:10.863Z,68.64
2019-02-23T07:07:39.768Z,68.46
2019-02-23T07:10:10.065Z,68.71
2019-02-23T07:12:38.977Z,68.64
2019-02-23T07:15:08.192Z,68.67
2019-02-23T07:17:37.275Z,68.80
2019-02-23T07:20:06.809Z,68.44
2019-02-23T07:22:35.477Z,67.60
2019-02-23T07:25:04.700Z,66.88
2019-02-23T07:27:33.958Z,66.62
2019-02-23T07:30:03.057Z,67.36
2019-02-23T07:32:31.733Z,67.50
2019-02-23T07:35:00.743Z,67.02
2019-02-23T07:37:29.418Z,67.71
2019-02-23T07:39:58.412Z,67.82
2019-02-23T07:42:27.170Z,67.88
2019-02-23T07:44:56.150Z,67.05
2019-02-23T07:47:24.817Z,66.94
2019-02-23T07:49:53.491Z,67.34
2019-02-23T07:52:26.338Z,67.28
2019-02-23T07:54:52.959Z,67.51
2019-02-23T07:57:21.872Z,66.75
2019-02-23T07:59:50.568Z,66.98
2019-02-23T08:02:19.239Z,66.80
2019-02-23T08:04:48.239Z,66.80
2019-02-23T08:07:16.892Z,66.87
2019-02-23T08:09:45.923Z,65.73
2019-02-23T08:12:14.603Z,66.67
2019-02-23T08:14:43.593Z,66.78
2019-02-23T08:17:12.795Z,66.19
2019-02-23T08:19:41.462Z,66.10
2019-02-23T08:22:10.456Z,66.19
2019-02-23T08:24:39.433Z,66.70
2019-02-23T08:27:08.394Z,65.59
2019-02-23T08:29:37.653Z,65.51
2019-02-23T08:32:06.643Z,65.95
2019-02-23T08:34:35.591Z,65.49
2019-02-23T08:37:04.242Z,66.16
2019-02-23T08:39:32.944Z,65.24
2019-02-23T08:42:01.611Z,64.59
2019-02-23T08:44:30.542Z,64.61
2019-02-23T08:46:59.193Z,63.99
2019-02-23T08:49:28.156Z,64.67
2019-02-23T08:51:57.179Z,64.73
2019-02-23T08:54:26.145Z,63.37
2019-02-23T08:56:55.417Z,64.45
2019-02-23T08:59:24.170Z,63.71
2019-02-23T09:01:52.868Z,65.46
2019-02-23T09:04:22.119Z,65.39
2019-02-23T09:06:51.050Z,64.75
2019-02-23T09:09:20.127Z,65.47
2019-02-23T09:11:49.027Z,63.96
2019-02-23T09:14:17.943Z,64.61
2019-02-23T09:16:46.997Z,64.73
2019-02-23T09:19:15.968Z,65.60
2019-02-23T09:21:45.331Z,64.49
2019-02-23T09:24:14.061Z,64.94
2019-02-23T09:26:43.132Z,65.24
2019-02-23T09:29:12.006Z,65.08
2019-02-23T09:31:40.916Z,65.93
2019-02-23T09:34:10.001Z,65.37
2019-02-23T09:36:38.915Z,64.69
2019-02-23T09:39:07.692Z,64.34
2019-02-23T09:41:36.344Z,65.54
2019-02-23T09:44:05.445Z,65.31
2019-02-23T09:46:34.151Z,65.29
2019-02-23T09:49:03.166Z,65.78
2019-02-23T09:51:32.157Z,64.90
2019-02-23T09:54:01.162Z,65.50
2019-02-23T09:56:29.837Z,65.46
2019-02-23T09:58:58.847Z,64.72
2019-02-23T10:01:27.588Z,63.99
2019-02-23T10:03:56.249Z,64.06
2019-02-23T10:06:24.940Z,62.83
2019-02-23T10:08:53.604Z,63.62
2019-02-23T10:11:22.880Z,62.86
2019-02-23T10:13:51.905Z,63.56
2019-02-23T10:16:20.585Z,62.69
2019-02-23T10:18:49.310Z,61.70
2019-02-23T10:21:18.340Z,61.98
2019-02-23T10:23:47.303Z,61.41
2019-02-23T10:26:16.333Z,60.80
2019-02-23T10:28:45.008Z,62.20
2019-02-23T10:31:15.357Z,61.15
2019-02-23T10:33:47.619Z,61.37
2019-02-23T10:36:16.099Z,61.68
2019-02-23T10:38:45.060Z,62.88
2019-02-23T10:41:15.399Z,60.76
2019-02-23T10:43:44.662Z,60.88
2019-02-23T10:46:13.590Z,60.15
2019-02-23T10:48:42.414Z,60.35
2019-02-23T10:51:11.830Z,58.19
2019-02-23T10:53:40.738Z,59.14
2019-02-23T10:56:10.892Z,59.21
2019-02-23T10:58:39.557Z,59.65
2019-02-23T11:01:08.306Z,58.28
2019-02-23T11:03:37.437Z,58.69
2019-02-23T11:06:06.597Z,57.59
2019-02-23T11:08:35.917Z,57.11
2019-02-23T11:11:05.838Z,55.02
2019-02-23T11:13:39.538Z,56.32
2019-02-23T11:16:09.009Z,56.37
2019-02-23T11:18:38.592Z,56.63
2019-02-23T11:21:08.363Z,57.27
2019-02-23T11:23:44.223Z,54.63
2019-02-23T11:26:08.730Z,56.35
2019-02-23T11:28:41.080Z,54.91
2019-02-23T11:31:11.271Z,55.57
2019-02-23T11:33:43.949Z,55.02
2019-02-23T11:36:12.953Z,55.14
2019-02-23T11:38:41.666Z,55.05
2019-02-23T11:41:10.802Z,53.27
2019-02-23T11:43:39.497Z,52.56
2019-02-23T11:46:08.187Z,52.39
2019-02-23T11:48:36.871Z,52.32
2019-02-23T11:51:06.440Z,50.24
2019-02-23T11:53:35.172Z,50.41
2019-02-23T11:56:03.961Z,50.95
2019-02-23T11:58:33.229Z,51.13
2019-02-23T12:01:02.275Z,50.01
2019-02-23T12:03:30.933Z,49.24
2019-02-23T12:05:59.667Z,49.95
2019-02-23T12:08:28.353Z,49.88
2019-02-23T12:10:57.357Z,48.76
2019-02-23T12:13:26.064Z,49.02
2019-02-23T12:15:55.035Z,48.77
2019-02-23T12:18:24.089Z,47.78
2019-02-23T12:20:53.039Z,46.86
2019-02-23T12:23:21.760Z,44.91
2019-02-23T12:25:51.263Z,45.25
2019-02-23T12:28:19.965Z,45.25
2019-02-23T12:30:48.911Z,45.05
2019-02-23T12:33:17.590Z,45.94
2019-02-23T12:35:46.509Z,44.21
2019-02-23T12:38:15.216Z,45.47
2019-02-23T12:40:44.154Z,45.25
2019-02-23T12:43:12.867Z,44.84
2019-02-23T12:45:42.063Z,45.21
2019-02-23T12:48:11.075Z,44.14
2019-02-23T12:50:40.217Z,43.37
2019-02-23T12:53:09.162Z,45.11
2019-02-23T12:55:38.348Z,43.21
2019-02-23T12:58:09.948Z,43.26
2019-02-23T13:00:38.680Z,42.11
2019-02-23T13:03:08.685Z,45.74
2019-02-23T13:05:37.617Z,41.22
2019-02-23T13:08:06.454Z,42.07
2019-02-23T13:10:35.210Z,45.17
2019-02-23T13:13:34.152Z,43.32
2019-02-23T13:16:26.980Z,42.82
2019-02-23T13:19:40.261Z,43.35
2019-02-23T13:22:56.582Z,42.05
2019-02-23T13:26:02.886Z,42.83
2019-02-23T13:29:07.151Z,41.27
2019-02-23T13:32:00.570Z,41.19
2019-02-23T13:34:55.656Z,42.04
2019-02-23T13:37:55.013Z,41.35
2019-02-23T13:40:49.529Z,42.69
2019-02-23T13:43:46.283Z,41.42
2019-02-23T13:46:58.184Z,42.59
2019-02-23T13:50:02.658Z,41.14
2019-02-23T13:52:59.000Z,40.37
2019-02-23T13:56:02.471Z,40.08
2019-02-23T13:59:10.686Z,40.12
2019-02-23T14:02:36.777Z,39.80
2019-02-23T14:05:35.739Z,40.51
2019-02-23T14:08:24.194Z,38.94
2019-02-23T14:11:27.369Z,38.94
2019-02-23T14:14:14.466Z,39.57
2019-02-23T14:17:06.080Z,40.72
2019-02-23T14:20:11.770Z,39.14
2019-02-23T14:23:19.747Z,39.48
2019-02-23T14:26:11.869Z,41.28
2019-02-23T14:29:12.993Z,39.50
2019-02-23T14:32:16.591Z,40.56
2019-02-23T14:35:36.118Z,40.99
2019-02-23T14:38:33.914Z,39.66
2019-02-23T14:41:28.344Z,39.66
2019-02-23T14:44:32.210Z,40.25
2019-02-23T14:47:35.516Z,40.69
2019-02-23T14:50:41.191Z,39.81
2019-02-23T14:53:27.942Z,39.93
2019-02-23T14:56:35.020Z,40.01
2019-02-23T14:59:30.458Z,40.37
2019-02-23T15:02:42.215Z,39.23
2019-02-23T15:05:51.412Z,39.73
2019-02-23T15:08:41.476Z,39.67
2019-02-23T15:11:55.292Z,40.45
2019-02-23T15:15:05.183Z,40.65
2019-02-23T15:17:55.592Z,42.16
2019-02-23T15:20:59.957Z,41.92
2019-02-23T15:23:42.167Z,44.09
2019-02-23T15:26:28.244Z,43.02
2019-02-23T15:29:44.092Z,43.33
2019-02-23T15:33:12.553Z,42.80
2019-02-23T15:36:30.793Z,45.31
2019-02-23T15:39:37.901Z,45.14
2019-02-23T15:42:53.883Z,44.04
2019-02-23T15:45:58.833Z,44.06
2019-02-23T15:48:43.903Z,42.77
2019-02-23T15:51:12.880Z,43.62
2019-02-23T15:53:41.587Z,43.24
2019-02-23T15:56:10.905Z,43.65
2019-02-23T15:58:39.591Z,44.38
2019-02-23T16:01:08.765Z,44.55
2019-02-23T16:03:37.496Z,46.26
2019-02-23T16:06:07.830Z,45.46
2019-02-23T16:08:36.821Z,45.85
2019-02-23T16:11:05.526Z,46.03
2019-02-23T16:13:34.678Z,45.59
2019-02-23T16:16:03.438Z,44.73
2019-02-23T16:18:32.455Z,45.06
2019-02-23T16:21:01.226Z,44.00
2019-02-23T16:23:35.330Z,44.89
2019-02-23T16:26:00.650Z,45.75
2019-02-23T16:28:29.802Z,46.87
2019-02-23T16:30:58.615Z,47.32
2019-02-23T16:33:27.261Z,47.87
2019-02-23T16:35:56.362Z,47.89
2019-02-23T16:38:25.287Z,47.87
2019-02-23T16:40:54.479Z,48.90
2019-02-23T16:43:23.132Z,49.66
2019-02-23T16:45:51.803Z,47.22
2019-02-23T16:48:20.756Z,48.54
2019-02-23T16:50:49.433Z,48.27
2019-02-23T16:53:18.465Z,48.14
2019-02-23T16:55:50.926Z,48.31
2019-02-23T16:58:17.549Z,48.18
2019-02-23T17:00:46.797Z,48.30
2019-02-23T17:03:15.890Z,47.71
2019-02-23T17:05:44.597Z,47.15
2019-02-23T17:08:13.285Z,47.76
2019-02-23T17:10:42.041Z,48.71
2019-02-23T17:13:10.729Z,48.10
2019-02-23T17:15:39.436Z,48.39
2019-02-23T17:18:08.601Z,48.55
2019-02-23T17:20:37.508Z,48.29
2019-02-23T17:23:06.271Z,48.34
2019-02-23T17:25:35.172Z,49.11
2019-02-23T17:28:06.969Z,49.33
2019-02-23T17:30:34.272Z,49.22
2019-02-23T17:33:04.763Z,49.63
2019-02-23T17:35:33.437Z,48.58
2019-02-23T17:38:02.360Z,49.29
2019-02-23T17:40:31.025Z,48.95
2019-02-23T17:42:59.935Z,49.78
2019-02-23T17:45:28.616Z,49.22
2019-02-23T17:47:57.524Z,49.86
2019-02-23T17:50:26.200Z,48.82
2019-02-23T17:52:55.385Z,48.10
2019-02-23T17:55:24.049Z,48.72
2019-02-23T17:57:52.730Z,48.13
2019-02-23T18:00:24.179Z,47.29
2019-02-23T18:02:53.463Z,47.53
2019-02-23T18:05:22.386Z,47.83
2019-02-23T18:07:51.504Z,46.85
2019-02-23T18:10:20.163Z,45.84
2019-02-23T18:12:50.331Z,45.78
2019-02-23T18:15:26.774Z,45.40
2019-02-23T18:17:56.966Z,46.10
2019-02-23T18:20:32.535Z,45.80
2019-02-23T18:23:07.991Z,45.54
2019-02-23T18:25:37.040Z,45.84
2019-02-23T18:28:06.260Z,46.22
2019-02-23T18:30:36.218Z,46.91
2019-02-23T18:33:04.972Z,46.74
2019-02-23T18:35:34.141Z,46.22
2019-02-23T18:38:03.353Z,46.19
2019-02-23T18:40:32.225Z,47.10
2019-02-23T18:43:03.524Z,46.52
2019-02-23T18:45:32.756Z,45.92
2019-02-23T18:48:01.428Z,46.34
2019-02-23T18:50:30.452Z,46.47
2019-02-23T18:52:59.116Z,45.69
2019-02-23T18:55:27.784Z,45.36
2019-02-23T18:57:57.504Z,46.63
2019-02-23T19:00:26.568Z,46.01
2019-02-23T19:02:55.233Z,45.94
2019-02-23T19:05:24.445Z,46.45
2019-02-23T19:08:02.142Z,47.06
2019-02-23T19:10:31.003Z,47.51
2019-02-23T19:13:00.132Z,47.85
2019-02-23T19:15:29.226Z,48.54
2019-02-23T19:17:59.167Z,48.55
2019-02-23T19:20:29.724Z,48.72
2019-02-23T19:23:03.131Z,48.64
2019-02-23T19:25:32.087Z,48.65
2019-02-23T19:28:01.249Z,48.71
2019-02-23T19:30:29.917Z,48.75
2019-02-23T19:32:58.853Z,48.77
2019-02-23T19:35:27.528Z,47.42
2019-02-23T19:37:56.419Z,48.05
2019-02-23T19:40:25.318Z,48.76
2019-02-23T19:42:54.207Z,49.46
2019-02-23T19:45:23.133Z,49.73
2019-02-23T19:47:52.280Z,49.93
2019-02-23T19:50:27.881Z,48.77
2019-02-23T19:52:56.549Z,48.52
2019-02-23T19:55:25.222Z,49.22
2019-02-23T19:57:54.123Z,49.56
2019-02-23T20:00:23.051Z,49.50
2019-02-23T20:02:51.974Z,49.31
2019-02-23T20:05:20.645Z,49.45
2019-02-23T20:07:49.322Z,49.05
2019-02-23T20:10:18.002Z,49.52
2019-02-23T20:12:46.676Z,50.01
2019-02-23T20:15:15.625Z,50.21
2019-02-23T20:17:44.340Z,50.02
2019-02-23T20:20:15.355Z,49.56
2019-02-23T20:22:44.237Z,49.57
2019-02-23T20:25:13.161Z,49.69
2019-02-23T20:27:41.904Z,49.84
2019-02-23T20:30:11.003Z,50.42
2019-02-23T20:32:39.747Z,50.67
2019-02-23T20:35:08.625Z,50.09
2019-02-23T20:37:37.376Z,51.51
2019-02-23T20:40:07.127Z,51.52
2019-02-23T20:42:36.151Z,51.79
2019-02-23T20:45:05.278Z,50.74
2019-02-23T20:47:37.459Z,51.24
2019-02-23T20:50:08.271Z,51.63
2019-02-23T20:52:37.163Z,51.70
2019-02-23T20:55:06.149Z,50.77
2019-02-23T20:57:35.109Z,51.58
2019-02-23T21:00:04.407Z,51.06
2019-02-23T21:02:33.204Z,51.89
2019-02-23T21:05:06.625Z,52.78
2019-02-23T21:07:35.788Z,51.67
2019-02-23T21:10:05.062Z,51.55
2019-02-23T21:12:35.086Z,52.08
2019-02-23T21:15:03.988Z,52.39
2019-02-23T21:17:32.883Z,51.72
2019-02-23T21:20:01.845Z,52.80
2019-02-23T21:22:30.481Z,53.90
2019-02-23T21:24:59.396Z,54.06
2019-02-23T21:27:28.209Z,53.44
2019-02-23T21:29:56.890Z,53.45
2019-02-23T21:32:25.589Z,53.58
2019-02-23T21:34:54.249Z,52.91
2019-02-23T21:37:23.166Z,53.64
2019-02-23T21:39:52.086Z,53.57
2019-02-23T21:42:20.737Z,53.81
2019-02-23T21:44:49.443Z,53.90
2019-02-23T21:47:18.583Z,54.01
2019-02-23T21:49:47.519Z,54.50
2019-02-23T21:52:16.203Z,54.32
2019-02-23T21:54:45.146Z,53.82
2019-02-23T21:57:22.052Z,54.10
2019-02-23T21:59:44.720Z,53.90
2019-02-23T22:02:13.622Z,53.94
2019-02-23T22:04:42.332Z,54.10
2019-02-23T22:07:11.239Z,54.75
2019-02-23T22:09:40.455Z,54.45
2019-02-23T22:12:09.407Z,54.26
2019-02-23T22:14:38.109Z,54.55
2019-02-23T22:17:06.773Z,54.24
2019-02-23T22:19:35.552Z,54.41
2019-02-23T22:22:04.490Z,53.59
2019-02-23T22:24:33.419Z,53.66
2019-02-23T22:27:02.373Z,53.93
2019-02-23T22:29:31.297Z,53.65
2019-02-23T22:32:00.230Z,53.32
2019-02-23T22:34:28.967Z,53.50
2019-02-23T22:36:57.916Z,53.76
2019-02-23T22:39:26.837Z,53.44
2019-02-23T22:41:55.513Z,53.82
2019-02-23T22:44:24.191Z,54.01
2019-02-23T22:46:53.120Z,54.57
2019-02-23T22:49:21.807Z,54.38
2019-02-23T22:51:50.724Z,54.90
2019-02-23T22:54:21.430Z,54.20
2019-02-23T22:56:50.114Z,54.27
2019-02-23T22:59:19.313Z,54.05
2019-02-23T23:01:48.420Z,54.34
2019-02-23T23:04:17.327Z,53.40
2019-02-23T23:06:46.110Z,53.29
2019-02-23T23:09:18.391Z,53.57
2019-02-23T23:11:47.074Z,53.74
2019-02-23T23:14:16.100Z,54.49
2019-02-23T23:16:44.776Z,54.12
2019-02-23T23:19:13.535Z,54.44
2019-02-23T23:21:44.343Z,53.63
2019-02-23T23:24:13.021Z,53.77
2019-02-23T23:26:41.768Z,54.56
2019-02-23T23:29:10.742Z,53.62
2019-02-23T23:31:39.508Z,53.50
2019-02-23T23:34:08.182Z,53.56
2019-02-23T23:36:36.903Z,53.66
2019-02-23T23:39:06.827Z,53.65
2019-02-23T23:41:35.777Z,53.61
2019-02-23T23:44:04.452Z,54.84
2019-02-23T23:46:33.393Z,55.38
2019-02-23T23:49:02.553Z,55.72
2019-02-23T23:51:31.254Z,55.82
2019-02-23T23:54:00.176Z,56.10
2019-02-23T23:56:28.857Z,55.81
2019-02-23T23:58:57.762Z,55.51
